Time;durP1;ratioP1;P1;durP2;ratioP2;P2;SDS_P1;SDS_P2;PMS_P1;PMS_P2;Temp;Humidity;BMP_temperature;BMP_pressure;BME280_temperature;BME280_humidity;BME280_pressure;Samples;Min_cycle;Max_cycle;Signal;HPM_P1;HPM_P2
2021/05/08 00:01:41;;;;;;;0.82;0.60;;;307.80;2124.80;;;;;;5702500;25;20126;-81
2021/05/08 00:05:10;;;;;;;0.38;0.38;;;307.80;2073.60;;;;;;5668099;25;20022;-81
2021/05/08 00:19:03;;;;;;;0.40;0.40;;;307.90;1996.80;;;;;;5688618;24;20021;-82
2021/05/08 00:29:00;;;;;;;2.63;2.40;;;307.70;2022.40;;;;;;5853468;24;20099;-81
2021/05/08 00:38:44;;;;;;;0.70;0.50;;;307.40;2176.00;;;;;;6060833;23;20490;-81
2021/05/08 00:41:49;;;;;;;0.85;0.70;;;307.30;2227.20;;;;;;6016310;23;20011;-80
2021/05/08 01:03:03;;;;;;;0.55;0.55;;;307.30;2304.00;;;;;;5802214;24;20025;-82
2021/05/08 01:35:34;;;;;;;0.50;0.50;;;282.30;2278.40;;;;;;5111620;28;20153;-82
2021/05/08 01:38:11;;;;;;;2.17;0.60;;;282.30;2278.40;;;;;;5093057;28;20473;-79
2021/05/08 01:40:41;;;;;;;0.88;0.80;;;282.30;2278.40;;;;;;5091975;28;20118;-80
2021/05/08 01:43:19;;;;;;;1.55;0.63;;;307.20;2304.00;;;;;;5091671;28;20035;-80
2021/05/08 01:52:03;;;;;;;1.02;0.73;;;282.50;2278.40;;;;;;5008982;28;20112;-80
2021/05/08 01:55:01;;;;;;;0.50;0.50;;;307.20;2304.00;;;;;;5009002;28;20053;-80
2021/05/08 01:57:50;;;;;;;0.75;0.65;;;282.50;2278.40;;;;;;5007434;28;20065;-79
2021/05/08 02:00:31;;;;;;;2.10;0.90;;;307.20;2304.00;;;;;;4991150;28;20480;-80
2021/05/08 02:03:04;;;;;;;2.72;0.90;;;282.50;2278.40;;;;;;5008627;28;20610;-79
2021/05/08 02:06:06;;;;;;;;;;;;;;;;;;;;;
2021/05/08 02:08:41;;;;;;;2.25;0.80;;;307.20;2304.00;;;;;;5008390;28;20037;-79
2021/05/08 02:11:23;;;;;;;1.73;0.98;;;307.20;2304.00;;;;;;5008029;28;20506;-79
2021/05/08 02:14:23;;;;;;;1.25;0.90;;;307.20;2304.00;;;;;;4991766;28;20045;-79
2021/05/08 02:17:01;;;;;;;0.70;0.70;;;307.20;2304.00;;;;;;4992015;28;20460;-79
2021/05/08 02:20:01;;;;;;;2.17;0.90;;;282.50;2278.40;;;;;;4991218;28;20030;-79
2021/05/08 02:22:36;;;;;;;0.93;0.93;;;282.50;2278.40;;;;;;4930767;29;20570;-79
2021/05/08 02:28:16;;;;;;;0.85;0.85;;;282.40;2278.40;;;;;;4988406;28;20039;-79
2021/05/08 02:30:58;;;;;;;0.98;0.90;;;282.40;2278.40;;;;;;4971989;28;20472;-79
2021/05/08 02:33:35;;;;;;;1.05;0.93;;;282.50;2278.40;;;;;;4959188;28;20066;-79
2021/05/08 02:36:27;;;;;;;1.00;1.00;;;282.50;2278.40;;;;;;4959066;28;20043;-79
2021/05/08 02:39:23;;;;;;;1.40;1.20;;;282.50;2278.40;;;;;;4958939;28;20074;-79
2021/05/08 02:42:02;;;;;;;1.30;1.10;;;282.40;2278.40;;;;;;4965938;28;20303;-79
2021/05/08 02:44:42;;;;;;;1.27;1.08;;;282.40;2278.40;;;;;;4978383;28;20408;-79
2021/05/08 02:47:20;;;;;;;2.10;1.20;;;282.30;2278.40;;;;;;4996691;28;20044;-79
2021/05/08 02:50:07;;;;;;;2.47;1.38;;;282.40;2278.40;;;;;;4997562;28;20045;-79
2021/05/08 02:52:43;;;;;;;1.88;1.23;;;282.40;2278.40;;;;;;4997124;28;20042;-79
2021/05/08 02:58:52;;;;;;;2.50;1.50;;;282.40;2278.40;;;;;;4936534;29;20035;-78
2021/05/08 03:01:26;;;;;;;1.75;1.20;;;282.50;2278.40;;;;;;4994115;28;20406;-79
2021/05/08 03:04:01;;;;;;;2.50;1.10;;;307.20;2304.00;;;;;;4994744;28;20136;-79
2021/05/08 03:06:40;;;;;;;2.88;1.10;;;282.40;2278.40;;;;;;4994264;28;20116;-79
2021/05/08 03:09:18;;;;;;;1.77;1.65;;;282.30;2278.40;;;;;;4978083;28;20030;-79
2021/05/08 03:11:44;;;;;;;2.80;1.48;;;282.40;2278.40;;;;;;4994157;28;20026;-80
2021/05/08 03:18:36;;;;;;;1.40;1.25;;;282.50;2278.40;;;;;;4994199;28;20038;-79
2021/05/08 03:24:34;;;;;;;4.63;1.55;;;282.50;2252.80;;;;;;4974263;28;20061;-79
2021/05/08 03:27:09;;;;;;;1.10;1.00;;;282.50;2278.40;;;;;;4940820;28;20405;-81
2021/05/08 03:29:38;;;;;;;2.03;1.33;;;307.20;2227.20;;;;;;4938944;29;20039;-81
2021/05/08 03:32:36;;;;;;;3.78;1.38;;;307.20;2227.20;;;;;;4953840;28;20480;-80
2021/05/08 03:35:28;;;;;;;1.75;1.45;;;307.20;2227.20;;;;;;4993706;28;20058;-80
2021/05/08 03:38:34;;;;;;;2.17;1.60;;;307.20;2227.20;;;;;;4950993;28;20065;-80
2021/05/08 03:41:32;;;;;;;4.35;2.88;;;307.20;2278.40;;;;;;4977214;28;20096;-80
2021/05/08 03:44:30;;;;;;;;;;;;;;;;;;;;;
2021/05/08 03:47:30;;;;;;;3.35;2.17;;;282.40;2227.20;;;;;;4993547;28;20046;-82
2021/05/08 03:50:36;;;;;;;2.33;1.80;;;282.30;2278.40;;;;;;4955886;29;20042;-80
2021/05/08 03:53:16;;;;;;;2.15;1.88;;;282.40;2227.20;;;;;;4958462;29;20047;-80
2021/05/08 03:56:08;;;;;;;2.40;1.90;;;282.40;2227.20;;;;;;4946435;29;20031;-79
2021/05/08 03:59:06;;;;;;;3.65;2.70;;;282.40;2227.20;;;;;;4975179;28;20045;-79
2021/05/08 04:01:31;;;;;;;2.47;1.80;;;307.30;2278.40;;;;;;4920484;29;20510;-79
2021/05/08 04:04:25;;;;;;;4.70;1.80;;;282.40;2278.40;;;;;;4919081;29;20032;-79
2021/05/08 04:07:05;;;;;;;2.22;1.58;;;282.40;2201.60;;;;;;4919213;29;20047;-79
2021/05/08 04:10:14;;;;;;;2.42;1.50;;;282.50;2201.60;;;;;;4918895;29;20047;-79
2021/05/08 04:13:23;;;;;;;2.63;1.58;;;282.50;2201.60;;;;;;4950254;28;20126;-79
2021/05/08 04:16:12;;;;;;;2.42;1.50;;;282.50;2252.80;;;;;;4938297;29;20039;-79
2021/05/08 04:19:21;;;;;;;2.42;1.35;;;282.50;2176.00;;;;;;4953834;28;20038;-80
2021/05/08 04:22:30;;;;;;;;;;;;;;;;;;;;;
2021/05/08 04:24:59;;;;;;;1.80;1.40;;;307.20;2150.40;;;;;;4970732;28;20035;-80
2021/05/08 04:27:58;;;;;;;3.28;1.90;;;282.50;2150.40;;;;;;4973885;28;20033;-80
2021/05/08 04:30:46;;;;;;;4.53;1.67;;;307.20;2176.00;;;;;;4974021;28;20069;-80
2021/05/08 04:33:12;;;;;;;4.18;2.00;;;307.30;2201.60;;;;;;4974774;28;20488;-80
2021/05/08 04:36:43;;;;;;;3.13;2.00;;;307.20;2176.00;;;;;;4953731;28;20039;-80
2021/05/08 04:39:37;;;;;;;1.90;1.70;;;307.30;2201.60;;;;;;4946890;29;20035;-80
2021/05/08 04:42:22;;;;;;;3.95;1.70;;;307.30;2201.60;;;;;;4950881;28;20047;-80
2021/05/08 04:45:10;;;;;;;3.13;1.77;;;307.20;2227.20;;;;;;4934610;29;20163;-80
2021/05/08 04:48:09;;;;;;;2.15;1.38;;;307.30;2227.20;;;;;;4934690;29;20132;-80
2021/05/08 04:58:37;;;;;;;4.25;2.03;;;307.30;2252.80;;;;;;4841070;29;20042;-81
2021/05/08 05:01:27;;;;;;;3.83;2.28;;;307.30;2278.40;;;;;;4840652;29;20052;-90
2021/05/08 05:05:05;;;;;;;4.25;2.50;;;307.30;2227.20;;;;;;4843951;29;20407;-81
2021/05/08 05:15:50;;;;;;;12.68;6.57;;;307.40;2201.60;;;;;;4736224;30;20078;-81
2021/05/08 06:51:18;;;;;;;3.60;2.45;;;358.40;1689.60;;;;;;5878574;24;20104;-81
2021/05/08 06:54:54;;;;;;;4.18;2.78;;;358.50;1715.20;;;;;;5873664;24;20014;-82
2021/05/08 06:58:01;;;;;;;3.10;2.47;;;359.00;1689.60;;;;;;5714053;25;20104;-82
2021/05/08 07:15:06;;;;;;;5.10;2.42;;;359.10;1510.40;;;;;;5826013;24;20465;-81
2021/05/08 07:21:18;;;;;;;6.32;2.28;;;359.20;1484.80;;;;;;5793657;24;20008;-80
2021/05/08 07:24:23;;;;;;;;;;;;;;;;;;;;;
2021/05/08 07:33:37;;;;;;;2.95;2.42;;;359.20;1459.20;;;;;;5801318;24;20029;-80
2021/05/08 07:42:53;;;;;;;4.17;2.70;;;384.30;1433.60;;;;;;5765443;24;20514;-81
2021/05/08 07:45:50;;;;;;;3.88;2.25;;;384.20;1408.00;;;;;;5863502;24;20010;-81
2021/05/08 07:48:52;;;;;;;;;;;;;;;;;;;;;
2021/05/08 07:51:21;;;;;;;2.95;2.42;;;384.10;1408.00;;;;;;5872516;24;20085;-81
2021/05/08 07:54:06;;;;;;;3.45;2.25;;;359.30;1408.00;;;;;;5871972;24;20020;-82
2021/05/08 07:56:33;;;;;;;4.43;2.90;;;359.30;1356.80;;;;;;5871460;24;20458;-81
2021/05/08 07:59:02;;;;;;;4.90;2.38;;;384.10;1331.20;;;;;;5974652;24;20443;-81
2021/05/08 08:01:39;;;;;;;6.65;2.88;;;384.20;1331.20;;;;;;5980630;24;20005;-81
2021/05/08 08:04:05;;;;;;;5.60;2.67;;;384.40;1331.20;;;;;;5982093;24;20019;-79
2021/05/08 08:06:31;;;;;;;4.80;1.95;;;384.60;1228.80;;;;;;6074413;23;20004;-78
2021/05/08 08:08:57;;;;;;;5.32;3.13;;;384.90;1203.20;;;;;;6215562;23;20347;-85
2021/05/08 08:11:30;;;;;;;7.22;4.43;;;409.60;1228.80;;;;;;6219660;23;20015;-78
2021/05/08 08:13:56;;;;;;;5.45;3.00;;;409.70;1305.60;;;;;;6219682;23;20007;-77
2021/05/08 08:16:22;;;;;;;3.08;2.33;;;410.00;1254.40;;;;;;6219724;23;20389;-79
2021/05/08 08:18:48;;;;;;;2.78;2.00;;;409.60;1203.20;;;;;;6220492;23;20015;-79
2021/05/08 08:21:14;;;;;;;5.63;2.88;;;409.90;1228.80;;;;;;6221239;23;20012;-81
2021/05/08 08:23:40;;;;;;;4.45;2.95;;;410.00;1203.20;;;;;;6220066;23;20000;-79
2021/05/08 08:26:06;;;;;;;2.72;1.92;;;409.90;1254.40;;;;;;6219259;23;20008;-79
2021/05/08 08:28:32;;;;;;;5.70;2.25;;;410.00;1228.80;;;;;;6220063;23;20086;-79
2021/05/08 08:30:58;;;;;;;6.00;2.55;;;410.10;1228.80;;;;;;6219454;23;20004;-78
2021/05/08 08:33:26;;;;;;;3.17;2.33;;;410.00;1203.20;;;;;;6220312;23;20007;-81
2021/05/08 08:35:54;;;;;;;3.38;2.42;;;410.10;1203.20;;;;;;6222801;23;20072;-78
2021/05/08 08:38:20;;;;;;;4.28;2.22;;;410.10;1203.20;;;;;;6222780;23;20022;-78
2021/05/08 08:40:49;;;;;;;2.92;1.98;;;410.20;1203.20;;;;;;6219568;23;20004;-78
2021/05/08 08:43:18;;;;;;;2.53;2.05;;;410.40;1177.60;;;;;;6218454;23;20008;-78
2021/05/08 08:45:44;;;;;;;2.70;1.92;;;435.30;1177.60;;;;;;6219212;23;20091;-78
2021/05/08 08:48:13;;;;;;;4.32;2.08;;;410.50;1152.00;;;;;;6219390;23;20454;-79
2021/05/08 08:50:44;;;;;;;3.83;1.92;;;435.30;1126.40;;;;;;6220051;23;20004;-79
2021/05/08 08:53:14;;;;;;;4.40;2.72;;;435.50;1152.00;;;;;;6217629;23;20034;-79
2021/05/08 08:55:49;;;;;;;6.68;2.00;;;435.40;1100.80;;;;;;6219687;23;19996;-79
2021/05/08 08:58:17;;;;;;;2.97;2.13;;;435.30;1152.00;;;;;;6221375;23;20381;-79
2021/05/08 09:00:46;;;;;;;3.88;1.60;;;410.40;1152.00;;;;;;6220279;23;20442;-79
2021/05/08 09:03:12;;;;;;;3.78;2.15;;;410.40;1075.20;;;;;;6220630;23;20020;-79
2021/05/08 09:05:37;;;;;;;5.97;2.13;;;410.10;1126.40;;;;;;6219793;23;20027;-78
2021/05/08 09:08:08;;;;;;;3.92;2.03;;;410.30;1100.80;;;;;;6219024;23;20454;-79
2021/05/08 09:10:34;;;;;;;3.10;1.90;;;410.10;1100.80;;;;;;6218566;23;20008;-79
2021/05/08 09:13:02;;;;;;;6.40;2.45;;;410.30;1177.60;;;;;;6215373;23;20087;-80
2021/05/08 09:15:36;;;;;;;3.03;2.05;;;435.30;1177.60;;;;;;6217160;23;20414;-79
2021/05/08 09:18:06;;;;;;;5.72;2.00;;;435.80;1100.80;;;;;;6218345;23;20015;-78
2021/05/08 09:20:50;;;;;;;4.47;2.25;;;436.10;1100.80;;;;;;6217935;23;20430;-80
2021/05/08 09:23:35;;;;;;;3.00;2.50;;;460.90;1100.80;;;;;;6217149;23;20126;-80
2021/05/08 09:26:16;;;;;;;2.22;1.70;;;461.00;1075.20;;;;;;6214608;23;20337;-79
2021/05/08 09:32:00;;;;;;;4.60;2.17;;;461.50;1049.60;;;;;;6245413;23;20338;-78
2021/05/08 09:34:40;;;;;;;4.22;2.00;;;461.60;1100.80;;;;;;6218181;23;20319;-78
2021/05/08 09:37:18;;;;;;;3.65;2.20;;;461.30;1075.20;;;;;;6218944;23;20000;-80
2021/05/08 09:39:46;;;;;;;4.45;2.08;;;461.20;1075.20;;;;;;6219147;23;20334;-79
2021/05/08 09:42:35;;;;;;;3.15;1.80;;;461.50;1075.20;;;;;;6218335;23;20385;-80
2021/05/08 09:45:16;;;;;;;3.67;1.92;;;461.50;1075.20;;;;;;6216877;23;20007;-79
2021/05/08 09:47:48;;;;;;;2.80;1.70;;;461.60;1024.00;;;;;;6219397;23;20051;-79
2021/05/08 09:50:19;;;;;;;3.97;1.67;;;486.40;1024.00;;;;;;6218850;23;20011;-79
2021/05/08 09:53:04;;;;;;;3.25;2.10;;;461.60;1049.60;;;;;;6219280;23;20448;-78
2021/05/08 09:55:37;;;;;;;4.78;2.08;;;486.40;1049.60;;;;;;6218308;23;20090;-79
2021/05/08 09:58:26;;;;;;;5.80;1.85;;;486.60;1075.20;;;;;;6218838;23;20008;-79
2021/05/08 10:01:19;;;;;;;3.42;2.00;;;486.60;1049.60;;;;;;6219122;23;20012;-79
2021/05/08 10:03:48;;;;;;;2.00;1.80;;;486.50;1024.00;;;;;;6219873;23;20008;-80
2021/05/08 10:06:14;;;;;;;3.38;1.83;;;486.40;921.60;;;;;;6219589;23;19996;-82
2021/05/08 10:08:40;;;;;;;2.83;1.83;;;486.40;896.00;;;;;;6217062;23;20030;-80
2021/05/08 10:11:06;;;;;;;2.65;1.80;;;461.60;921.60;;;;;;6211724;23;20027;-78
2021/05/08 10:13:32;;;;;;;2.63;1.30;;;461.50;998.40;;;;;;6216288;23;20010;-79
2021/05/08 10:16:05;;;;;;;3.83;1.73;;;486.40;998.40;;;;;;6217069;23;20004;-78
2021/05/08 10:18:40;;;;;;;3.15;1.65;;;486.70;947.20;;;;;;6215708;23;20039;-79
2021/05/08 10:21:07;;;;;;;4.80;2.30;;;486.80;947.20;;;;;;6216298;23;20028;-78
2021/05/08 10:23:33;;;;;;;7.35;3.22;;;486.80;921.60;;;;;;6217389;23;20031;-79
2021/05/08 10:26:03;;;;;;;4.32;2.47;;;486.90;947.20;;;;;;6220322;23;20007;-79
2021/05/08 10:28:35;;;;;;;2.10;1.38;;;487.30;921.60;;;;;;6222586;23;20004;-79
2021/05/08 10:31:10;;;;;;;8.57;1.73;;;512.10;896.00;;;;;;6224993;23;20434;-79
2021/05/08 10:33:51;;;;;;;5.05;2.42;;;487.10;896.00;;;;;;6248696;23;20019;-79
2021/05/08 10:37:08;;;;;;;4.18;2.40;;;486.80;921.60;;;;;;6221007;23;20453;-79
2021/05/08 10:39:57;;;;;;;2.85;1.30;;;487.30;896.00;;;;;;6138138;23;20014;-78
2021/05/08 10:42:36;;;;;;;3.08;1.67;;;512.10;844.80;;;;;;6169040;23;20024;-81
2021/05/08 10:45:26;;;;;;;5.90;1.33;;;512.20;896.00;;;;;;6144688;23;20084;-78
2021/05/08 10:48:03;;;;;;;2.80;1.25;;;512.40;844.80;;;;;;6157281;23;20082;-79
2021/05/08 10:50:35;;;;;;;2.38;1.63;;;512.50;844.80;;;;;;6154587;23;20448;-78
2021/05/08 10:53:12;;;;;;;2.20;1.50;;;512.70;844.80;;;;;;6154510;23;20045;-79
2021/05/08 10:55:52;;;;;;;5.43;2.13;;;512.80;819.20;;;;;;6155068;23;20014;-78
2021/05/08 10:58:20;;;;;;;2.13;1.42;;;537.70;896.00;;;;;;6154768;23;20005;-79
2021/05/08 11:00:50;;;;;;;3.83;1.88;;;538.00;896.00;;;;;;6154914;23;20336;-80
2021/05/08 11:03:21;;;;;;;4.13;2.30;;;538.10;896.00;;;;;;6130370;23;20193;-80
2021/05/08 11:05:56;;;;;;;10.18;2.50;;;538.20;896.00;;;;;;6129784;23;20459;-79
2021/05/08 11:08:27;;;;;;;6.28;3.25;;;538.20;819.20;;;;;;6154485;23;20029;-79
2021/05/08 11:10:56;;;;;;;5.95;2.30;;;538.00;844.80;;;;;;6154723;23;20419;-79
2021/05/08 11:13:24;;;;;;;3.72;2.08;;;512.90;844.80;;;;;;6154790;23;20036;-79
2021/05/08 11:15:56;;;;;;;5.60;2.45;;;512.50;844.80;;;;;;6172786;23;20023;-79
2021/05/08 11:18:34;;;;;;;3.67;2.05;;;512.60;819.20;;;;;;6221013;23;20091;-79
2021/05/08 11:21:12;;;;;;;3.25;1.70;;;512.80;844.80;;;;;;6247765;23;20330;-80
2021/05/08 11:23:52;;;;;;;3.00;1.73;;;537.80;896.00;;;;;;6220931;23;20042;-80
2021/05/08 11:26:28;;;;;;;3.78;2.17;;;538.10;870.40;;;;;;6247786;23;20441;-79
2021/05/08 11:29:24;;;;;;;3.60;1.83;;;538.40;793.60;;;;;;6246573;23;20007;-78
2021/05/08 11:31:52;;;;;;;1.33;1.20;;;538.00;896.00;;;;;;6246913;23;20423;-79
2021/05/08 11:34:23;;;;;;;4.00;1.60;;;537.90;819.20;;;;;;6220113;23;20047;-79
2021/05/08 11:37:07;;;;;;;3.10;1.77;;;538.10;844.80;;;;;;6220146;23;20008;-79
2021/05/08 11:39:36;;;;;;;1.50;1.27;;;538.10;819.20;;;;;;6220160;23;20015;-79
2021/05/08 11:42:20;;;;;;;2.40;1.45;;;538.00;819.20;;;;;;6220135;23;20020;-80
2021/05/08 11:45:00;;;;;;;2.13;1.35;;;538.10;768.00;;;;;;6220257;23;20027;-79
2021/05/08 11:47:30;;;;;;;4.53;2.33;;;537.60;768.00;;;;;;6220901;23;20008;-79
2021/05/08 11:50:07;;;;;;;4.40;2.50;;;512.40;819.20;;;;;;6220138;23;20000;-79
2021/05/08 11:52:43;;;;;;;6.32;2.50;;;512.50;819.20;;;;;;6220304;23;20004;-80
2021/05/08 11:55:22;;;;;;;1.75;1.40;;;512.80;819.20;;;;;;6220259;23;20027;-78
2021/05/08 11:57:59;;;;;;;3.15;1.50;;;537.80;844.80;;;;;;6216823;23;20449;-80
2021/05/08 12:00:33;;;;;;;2.40;1.52;;;538.10;844.80;;;;;;6219964;23;20342;-80
2021/05/08 12:03:29;;;;;;;3.00;1.92;;;538.20;793.60;;;;;;6219982;23;20012;-80
2021/05/08 12:05:55;;;;;;;4.35;2.78;;;537.90;793.60;;;;;;6100368;23;20468;-81
2021/05/08 12:08:23;;;;;;;4.88;1.60;;;512.60;742.40;;;;;;6099894;23;20442;-80
2021/05/08 12:10:50;;;;;;;6.25;2.88;;;512.80;793.60;;;;;;6098961;23;20010;-81
2021/05/08 12:13:32;;;;;;;5.50;2.17;;;512.80;793.60;;;;;;6099901;23;20006;-81
2021/05/08 12:16:01;;;;;;;35.10;8.55;;;537.90;844.80;;;;;;6099657;23;20445;-80
2021/05/08 12:18:27;;;;;;;2.63;1.15;;;538.20;870.40;;;;;;6099806;23;20009;-80
2021/05/08 12:20:53;;;;;;;3.33;1.55;;;538.50;768.00;;;;;;6100036;23;20006;-78
2021/05/08 12:23:21;;;;;;;2.08;1.40;;;538.50;793.60;;;;;;6124406;23;20010;-79
2021/05/08 12:26:22;;;;;;;6.97;2.47;;;563.40;793.60;;;;;;6100039;23;20089;-79
2021/05/08 12:28:49;;;;;;;2.75;1.70;;;538.30;844.80;;;;;;6037821;23;20529;-78
2021/05/08 12:31:34;;;;;;;3.30;1.50;;;563.50;793.60;;;;;;6037868;23;20030;-79
2021/05/08 12:34:12;;;;;;;2.03;1.42;;;563.90;819.20;;;;;;6037883;23;20082;-78
2021/05/08 12:36:40;;;;;;;5.15;1.48;;;564.10;844.80;;;;;;6037741;23;20017;-78
2021/05/08 12:39:23;;;;;;;5.57;2.85;;;564.00;793.60;;;;;;6037527;23;20046;-79
2021/05/08 12:42:02;;;;;;;2.42;1.50;;;589.00;793.60;;;;;;6073386;23;20013;-80
2021/05/08 12:44:35;;;;;;;8.07;3.28;;;588.90;768.00;;;;;;6153775;23;20383;-79
2021/05/08 12:47:18;;;;;;;6.63;2.40;;;564.10;768.00;;;;;;6129551;23;20454;-80
2021/05/08 12:50:09;;;;;;;2.78;1.45;;;563.60;768.00;;;;;;6129548;23;20086;-79
2021/05/08 12:52:37;;;;;;;2.95;1.80;;;563.90;819.20;;;;;;6129050;23;20001;-79
2021/05/08 12:55:04;;;;;;;2.17;1.17;;;563.90;819.20;;;;;;6154020;23;20006;-79
2021/05/08 12:57:39;;;;;;;1.55;1.23;;;588.90;768.00;;;;;;6154422;23;20028;-79
2021/05/08 13:00:11;;;;;;;2.58;1.30;;;589.20;768.00;;;;;;6153949;23;20475;-79
2021/05/08 13:02:39;;;;;;;3.90;1.60;;;589.20;793.60;;;;;;6194543;23;20016;-78
2021/05/08 13:05:18;;;;;;;9.02;2.40;;;589.20;793.60;;;;;;6219888;23;20027;-80
2021/05/08 13:08:03;;;;;;;5.28;2.83;;;589.10;819.20;;;;;;6219973;23;20484;-79
2021/05/08 13:10:32;;;;;;;2.30;1.70;;;589.00;768.00;;;;;;6219606;23;20014;-79
2021/05/08 13:13:15;;;;;;;4.38;1.92;;;589.10;793.60;;;;;;6218088;23;20078;-79
2021/05/08 13:15:41;;;;;;;2.03;1.42;;;564.10;819.20;;;;;;6219423;23;20008;-79
2021/05/08 13:18:09;;;;;;;20.20;2.65;;;564.00;793.60;;;;;;6219626;23;20087;-79
2021/05/08 13:20:38;;;;;;;2.75;1.73;;;563.50;793.60;;;;;;6219725;23;20010;-80
2021/05/08 13:23:06;;;;;;;3.65;1.70;;;563.70;819.20;;;;;;6219379;23;20016;-81
2021/05/08 13:25:35;;;;;;;3.53;2.28;;;588.90;793.60;;;;;;6219541;23;20004;-81
2021/05/08 13:28:01;;;;;;;4.38;2.00;;;589.20;819.20;;;;;;6219259;23;20011;-79
2021/05/08 13:30:30;;;;;;;6.43;1.73;;;564.00;793.60;;;;;;6219797;23;20005;-78
2021/05/08 13:33:00;;;;;;;3.22;2.00;;;588.90;742.40;;;;;;6219483;23;20358;-79
2021/05/08 13:35:33;;;;;;;2.85;1.77;;;589.20;716.80;;;;;;6219731;23;20040;-79
2021/05/08 13:38:00;;;;;;;2.80;1.48;;;588.90;742.40;;;;;;6220098;23;20007;-79
2021/05/08 13:40:32;;;;;;;2.60;1.30;;;538.20;819.20;;;;;;6220358;23;20082;-80
2021/05/08 13:43:01;;;;;;;2.47;1.50;;;563.30;819.20;;;;;;6222573;23;20016;-80
2021/05/08 13:45:27;;;;;;;3.60;1.98;;;563.60;819.20;;;;;;6220777;23;20073;-81
2021/05/08 13:47:53;;;;;;;2.83;1.60;;;564.10;819.20;;;;;;6220563;23;20012;-80
2021/05/08 13:50:21;;;;;;;4.05;1.73;;;589.00;793.60;;;;;;6220427;23;20422;-82
2021/05/08 13:53:23;;;;;;;2.88;1.77;;;589.20;793.60;;;;;;6220193;23;20377;-80
2021/05/08 13:55:52;;;;;;;3.17;1.42;;;589.00;844.80;;;;;;6220054;23;20387;-81
2021/05/08 13:58:41;;;;;;;9.57;1.88;;;589.10;793.60;;;;;;6219594;23;20008;-81
2021/05/08 14:01:09;;;;;;;4.47;1.73;;;589.10;793.60;;;;;;6183000;23;20087;-80
2021/05/08 14:03:38;;;;;;;6.18;1.50;;;589.20;793.60;;;;;;6159437;23;20005;-80
2021/05/08 14:06:04;;;;;;;2.78;2.03;;;589.20;768.00;;;;;;6160615;23;20335;-79
2021/05/08 14:08:33;;;;;;;4.97;2.40;;;589.30;819.20;;;;;;6160426;23;20426;-80
2021/05/08 14:11:01;;;;;;;5.15;1.63;;;589.40;844.80;;;;;;6159559;23;20012;-80
2021/05/08 14:13:28;;;;;;;2.95;1.55;;;589.40;768.00;;;;;;6160267;23;20032;-79
2021/05/08 14:15:54;;;;;;;2.92;1.70;;;588.90;793.60;;;;;;6160975;23;20444;-80
2021/05/08 14:18:23;;;;;;;3.92;1.90;;;564.10;793.60;;;;;;6160685;23;20088;-80
2021/05/08 14:20:49;;;;;;;3.88;1.70;;;589.40;819.20;;;;;;6160871;23;20459;-80
2021/05/08 14:23:24;;;;;;;2.95;1.60;;;589.70;742.40;;;;;;6160382;23;20020;-82
2021/05/08 14:25:53;;;;;;;2.45;1.77;;;614.60;768.00;;;;;;6178618;23;20459;-81
2021/05/08 14:28:19;;;;;;;6.07;1.65;;;614.50;768.00;;;;;;6216454;23;20096;-81
2021/05/08 14:30:44;;;;;;;3.92;1.73;;;614.60;742.40;;;;;;6217046;23;20000;-81
2021/05/08 14:33:10;;;;;;;2.78;1.83;;;589.10;716.80;;;;;;6217041;23;20024;-80
2021/05/08 14:35:36;;;;;;;2.90;1.50;;;589.10;716.80;;;;;;6217108;23;20012;-80
2021/05/08 14:38:05;;;;;;;4.40;2.03;;;563.80;844.80;;;;;;6217053;23;20009;-80
2021/05/08 14:40:36;;;;;;;9.38;6.68;;;589.20;768.00;;;;;;6216349;23;20000;-80
2021/05/08 14:43:02;;;;;;;4.53;2.35;;;589.10;793.60;;;;;;6216351;23;20481;-81
2021/05/08 14:45:28;;;;;;;3.40;2.15;;;589.30;793.60;;;;;;6216787;23;20437;-80
2021/05/08 14:48:00;;;;;;;5.07;2.30;;;589.60;742.40;;;;;;6191309;23;20044;-80
2021/05/08 14:50:30;;;;;;;2.63;1.63;;;589.20;768.00;;;;;;6216326;23;20001;-79
2021/05/08 14:52:56;;;;;;;3.80;2.10;;;589.40;768.00;;;;;;6216471;23;20009;-79
2021/05/08 14:55:22;;;;;;;5.32;1.50;;;588.90;819.20;;;;;;6215868;23;20070;-79
2021/05/08 14:57:47;;;;;;;7.28;1.92;;;564.00;819.20;;;;;;6216186;23;20441;-79
2021/05/08 15:00:17;;;;;;;9.68;2.40;;;588.90;793.60;;;;;;6190182;23;20009;-81
2021/05/08 15:02:48;;;;;;;7.85;2.17;;;589.10;793.60;;;;;;6216308;23;20009;-80
2021/05/08 15:05:14;;;;;;;6.68;1.70;;;589.00;793.60;;;;;;6191972;23;20012;-80
2021/05/08 15:07:40;;;;;;;3.67;1.77;;;589.10;793.60;;;;;;6221831;23;20039;-79
2021/05/08 15:10:07;;;;;;;5.60;2.00;;;589.40;768.00;;;;;;6221276;23;20091;-80
2021/05/08 15:12:39;;;;;;;4.30;1.52;;;589.60;819.20;;;;;;6221450;23;20082;-80
2021/05/08 15:15:05;;;;;;;5.25;2.90;;;589.60;742.40;;;;;;6220092;23;20419;-79
2021/05/08 15:17:32;;;;;;;6.90;2.10;;;614.50;742.40;;;;;;6220677;23;20001;-78
2021/05/08 15:19:59;;;;;;;3.80;2.35;;;589.70;819.20;;;;;;6220965;23;20004;-79
2021/05/08 15:22:25;;;;;;;2.45;2.20;;;589.20;844.80;;;;;;6220693;23;20020;-79
2021/05/08 15:24:51;;;;;;;23.90;4.40;;;589.50;793.60;;;;;;6220757;23;20347;-79
2021/05/08 15:27:17;;;;;;;4.82;2.10;;;589.20;768.00;;;;;;6220855;23;20407;-80
2021/05/08 15:29:47;;;;;;;9.30;3.25;;;589.10;793.60;;;;;;6220276;23;20000;-80
2021/05/08 15:32:19;;;;;;;2.80;1.80;;;588.90;793.60;;;;;;6247900;23;20027;-81
2021/05/08 15:34:46;;;;;;;3.42;2.10;;;588.80;768.00;;;;;;6220520;23;20000;-80
2021/05/08 15:37:12;;;;;;;5.13;2.97;;;589.00;793.60;;;;;;6220493;23;20327;-81
2021/05/08 15:39:46;;;;;;;5.78;2.63;;;564.10;793.60;;;;;;6220542;23;20011;-80
2021/05/08 15:42:12;;;;;;;2.88;2.20;;;563.90;819.20;;;;;;6220624;23;20367;-78
2021/05/08 15:44:40;;;;;;;6.68;2.13;;;563.90;870.40;;;;;;6220428;23;20050;-81
2021/05/08 15:47:07;;;;;;;4.28;2.55;;;563.70;896.00;;;;;;6220780;23;20028;-80
2021/05/08 15:49:35;;;;;;;3.03;1.60;;;563.60;896.00;;;;;;6220867;23;20004;-80
2021/05/08 15:52:04;;;;;;;4.40;2.38;;;563.60;896.00;;;;;;6221420;23;20480;-80
2021/05/08 15:54:30;;;;;;;9.57;2.50;;;564.00;870.40;;;;;;6221457;23;20030;-80
2021/05/08 15:56:56;;;;;;;5.25;2.08;;;563.80;896.00;;;;;;6221777;23;20445;-79
2021/05/08 15:59:22;;;;;;;7.22;3.40;;;563.60;896.00;;;;;;6233919;23;20011;-80
2021/05/08 16:01:48;;;;;;;6.35;2.10;;;563.30;921.60;;;;;;6233853;23;20099;-78
2021/05/08 16:04:14;;;;;;;10.05;4.55;;;563.50;896.00;;;;;;6231953;23;20004;-80
2021/05/08 16:06:43;;;;;;;4.38;2.15;;;563.20;921.60;;;;;;6220353;23;19996;-79
2021/05/08 16:09:11;;;;;;;6.32;2.60;;;538.40;844.80;;;;;;6220243;23;20080;-79
2021/05/08 16:11:37;;;;;;;5.28;2.40;;;538.30;896.00;;;;;;6220227;23;20050;-79
2021/05/08 16:14:04;;;;;;;7.80;2.72;;;538.20;896.00;;;;;;6220361;23;20312;-79
2021/05/08 16:16:32;;;;;;;5.65;2.08;;;538.20;896.00;;;;;;6220601;23;20032;-79
2021/05/08 16:19:02;;;;;;;2.85;1.88;;;538.10;921.60;;;;;;6220548;23;20004;-79
2021/05/08 16:21:28;;;;;;;6.25;2.17;;;537.80;921.60;;;;;;6219948;23;20004;-79
2021/05/08 16:23:54;;;;;;;7.88;2.70;;;538.00;921.60;;;;;;6220263;23;20012;-79
2021/05/08 16:26:20;;;;;;;3.65;2.38;;;538.00;896.00;;;;;;6219452;23;20315;-80
2021/05/08 16:28:46;;;;;;;6.22;3.25;;;537.90;921.60;;;;;;6219901;23;20055;-79
2021/05/08 16:31:11;;;;;;;4.95;1.95;;;537.60;921.60;;;;;;6220183;23;20062;-79
2021/05/08 16:33:37;;;;;;;5.13;2.13;;;512.70;921.60;;;;;;6219981;23;20453;-79
2021/05/08 16:36:03;;;;;;;5.95;2.67;;;512.90;896.00;;;;;;6219926;23;20000;-79
2021/05/08 16:38:29;;;;;;;5.07;2.13;;;537.70;947.20;;;;;;6219787;23;20007;-79
2021/05/08 16:40:55;;;;;;;4.07;1.90;;;512.90;921.60;;;;;;6219715;23;20000;-83
2021/05/08 16:43:21;;;;;;;4.95;2.45;;;512.80;921.60;;;;;;6246791;23;20012;-80
2021/05/08 16:45:46;;;;;;;2.80;1.92;;;512.30;947.20;;;;;;6219913;23;20082;-79
2021/05/08 16:48:12;;;;;;;3.70;2.08;;;512.30;921.60;;;;;;6219917;23;20004;-79
2021/05/08 16:50:38;;;;;;;8.77;1.95;;;512.30;921.60;;;;;;6219689;23;20058;-79
2021/05/08 16:53:04;;;;;;;21.52;13.52;;;512.30;947.20;;;;;;6218711;23;20004;-79
2021/05/08 16:55:30;;;;;;;10.55;6.47;;;512.20;947.20;;;;;;6219972;23;20004;-79
2021/05/08 16:57:56;;;;;;;13.65;10.15;;;512.10;947.20;;;;;;6219350;23;20015;-78
2021/05/08 17:00:25;;;;;;;5.85;4.78;;;512.20;947.20;;;;;;6219751;23;20005;-78
2021/05/08 17:02:54;;;;;;;5.78;4.75;;;512.20;921.60;;;;;;6219468;23;20012;-79
2021/05/08 17:05:20;;;;;;;3.70;3.00;;;487.20;921.60;;;;;;6219999;23;20004;-79
2021/05/08 17:07:46;;;;;;;4.78;4.00;;;487.30;921.60;;;;;;6219593;23;20019;-79
2021/05/08 17:10:12;;;;;;;17.33;11.60;;;486.80;947.20;;;;;;6219903;23;20018;-79